Time;durP1;ratioP1;P1;durP2;ratioP2;P2;SDS_P1;SDS_P2;PMS_P1;PMS_P2;Temp;Humidity;BMP_temperature;BMP_pressure;BME280_temperature;BME280_humidity;BME280_pressure;Samples;Min_cycle;Max_cycle;Signal;HPM_P1;HPM_P2
2023/10/30 00:00:39;;;;;;;0.87;0.40;;;;;;;;;;4990105;28;20449;-75
2023/10/30 00:03:05;;;;;;;0.40;0.40;;;;;;;;;;4991698;28;20945;-75
2023/10/30 00:05:31;;;;;;;1.23;0.30;;;;;;;;;;4991552;28;20425;-75
2023/10/30 00:07:58;;;;;;;0.30;0.30;;;;;;;;;;4990389;28;20476;-75
2023/10/30 00:10:24;;;;;;;0.40;0.40;;;;;;;;;;4990678;28;20531;-74
2023/10/30 00:12:50;;;;;;;0.30;0.30;;;;;;;;;;4990887;28;20910;-75
2023/10/30 00:15:15;;;;;;;0.30;0.30;;;;;;;;;;4991637;28;20425;-75
2023/10/30 00:17:41;;;;;;;0.33;0.33;;;;;;;;;;4985912;28;20471;-74
2023/10/30 00:20:07;;;;;;;0.30;0.30;;;;;;;;;;4990637;28;20426;-75
2023/10/30 00:22:33;;;;;;;0.33;0.33;;;;;;;;;;4990309;28;20917;-75
2023/10/30 00:25:01;;;;;;;0.30;0.30;;;;;;;;;;5005876;28;20437;-75
2023/10/30 00:27:27;;;;;;;0.30;0.30;;;;;;;;;;4989360;28;20516;-74
2023/10/30 00:29:53;;;;;;;0.40;0.40;;;;;;;;;;4989831;28;20626;-75
2023/10/30 00:32:19;;;;;;;0.30;0.30;;;;;;;;;;4990673;28;20488;-74
2023/10/30 00:34:46;;;;;;;3.27;0.40;;;;;;;;;;4990136;28;20437;-75
2023/10/30 00:37:12;;;;;;;0.30;0.30;;;;;;;;;;4991144;28;20434;-74
2023/10/30 00:39:38;;;;;;;0.33;0.33;;;;;;;;;;4989836;28;20446;-75
2023/10/30 00:42:05;;;;;;;0.40;0.40;;;;;;;;;;4990835;28;20524;-75
2023/10/30 00:44:31;;;;;;;7.40;0.43;;;;;;;;;;4990826;28;20444;-75
2023/10/30 00:46:56;;;;;;;0.40;0.40;;;;;;;;;;4990290;28;20442;-75
2023/10/30 00:49:22;;;;;;;0.30;0.30;;;;;;;;;;4990737;28;20428;-75
2023/10/30 00:51:48;;;;;;;0.53;0.53;;;;;;;;;;4990130;28;20575;-74
2023/10/30 00:54:14;;;;;;;0.30;0.30;;;;;;;;;;4990647;28;20437;-75
2023/10/30 00:56:40;;;;;;;0.40;0.40;;;;;;;;;;4991163;28;20475;-75
2023/10/30 00:59:07;;;;;;;0.30;0.30;;;;;;;;;;4990284;28;20458;-75
2023/10/30 01:01:33;;;;;;;0.30;0.30;;;;;;;;;;4990057;28;20443;-75
2023/10/30 01:03:59;;;;;;;0.30;0.30;;;;;;;;;;4990609;28;20516;-74
2023/10/30 01:06:25;;;;;;;0.30;0.30;;;;;;;;;;4989969;28;20952;-74
2023/10/30 01:08:50;;;;;;;0.30;0.30;;;;;;;;;;4990310;28;20451;-73
2023/10/30 01:11:16;;;;;;;0.30;0.30;;;;;;;;;;4989479;28;20488;-74
2023/10/30 01:13:42;;;;;;;0.47;0.47;;;;;;;;;;4990407;28;20429;-75
2023/10/30 01:16:08;;;;;;;0.30;0.30;;;;;;;;;;4990786;28;20448;-75
2023/10/30 01:18:36;;;;;;;0.30;0.30;;;;;;;;;;4990041;28;20433;-75
2023/10/30 01:21:02;;;;;;;1.40;0.30;;;;;;;;;;4988103;28;20441;-74
2023/10/30 01:23:28;;;;;;;1.60;0.50;;;;;;;;;;4990546;28;20536;-75
2023/10/30 01:25:54;;;;;;;0.60;0.30;;;;;;;;;;4989939;28;20912;-75
2023/10/30 01:28:20;;;;;;;2.53;0.47;;;;;;;;;;4990217;28;20477;-75
2023/10/30 01:30:46;;;;;;;0.40;0.40;;;;;;;;;;4988285;28;20480;-75
2023/10/30 01:33:12;;;;;;;0.30;0.30;;;;;;;;;;5003826;28;20512;-75
2023/10/30 01:35:38;;;;;;;0.30;0.30;;;;;;;;;;4988778;28;20963;-74
2023/10/30 01:38:04;;;;;;;0.30;0.30;;;;;;;;;;4989900;28;20448;-74
2023/10/30 01:40:30;;;;;;;0.33;0.33;;;;;;;;;;4989064;28;20575;-74
2023/10/30 01:42:56;;;;;;;0.30;0.30;;;;;;;;;;4988820;28;20425;-75
2023/10/30 01:45:22;;;;;;;0.30;0.30;;;;;;;;;;4989882;28;20445;-75
2023/10/30 01:47:48;;;;;;;0.40;0.40;;;;;;;;;;4989989;28;20441;-75
2023/10/30 01:50:15;;;;;;;0.40;0.40;;;;;;;;;;4989506;28;20517;-75
2023/10/30 01:52:43;;;;;;;0.30;0.30;;;;;;;;;;4989240;28;20531;-75
2023/10/30 01:55:09;;;;;;;0.30;0.30;;;;;;;;;;4989931;28;20424;-74
2023/10/30 01:57:35;;;;;;;3.23;0.47;;;;;;;;;;4989998;28;20429;-75
2023/10/30 02:00:01;;;;;;;0.30;0.30;;;;;;;;;;4989906;28;20437;-74
2023/10/30 02:02:30;;;;;;;0.93;0.50;;;;;;;;;;4988952;28;20864;-74
2023/10/30 02:04:56;;;;;;;0.40;0.40;;;;;;;;;;4989637;28;20436;-74
2023/10/30 02:07:22;;;;;;;25.20;0.60;;;;;;;;;;4989807;28;20449;-75
2023/10/30 02:09:48;;;;;;;0.50;0.50;;;;;;;;;;4989265;28;20512;-75
2023/10/30 02:12:14;;;;;;;0.63;0.63;;;;;;;;;;4987943;28;20499;-74
2023/10/30 02:14:40;;;;;;;0.30;0.30;;;;;;;;;;4989638;28;20436;-74
2023/10/30 02:17:06;;;;;;;0.60;0.60;;;;;;;;;;4989761;28;21048;-75
2023/10/30 02:19:32;;;;;;;0.30;0.30;;;;;;;;;;4989324;28;20536;-75
2023/10/30 02:21:58;;;;;;;0.40;0.40;;;;;;;;;;4989321;28;20429;-74
2023/10/30 02:24:24;;;;;;;0.40;0.40;;;;;;;;;;4991208;28;20436;-74
2023/10/30 02:26:51;;;;;;;0.50;0.40;;;;;;;;;;4992896;28;20983;-75
2023/10/30 02:29:17;;;;;;;1.30;0.30;;;;;;;;;;4990168;28;20468;-74
2023/10/30 02:31:43;;;;;;;0.83;0.40;;;;;;;;;;4992295;28;20484;-74
2023/10/30 02:34:09;;;;;;;0.30;0.30;;;;;;;;;;4992257;28;20456;-74
2023/10/30 02:36:35;;;;;;;0.40;0.40;;;;;;;;;;4992481;28;20528;-75
2023/10/30 02:39:04;;;;;;;0.97;0.30;;;;;;;;;;4991918;28;20449;-74
2023/10/30 02:41:31;;;;;;;0.30;0.30;;;;;;;;;;4992309;28;20866;-75
2023/10/30 02:43:58;;;;;;;0.30;0.30;;;;;;;;;;4991494;28;20564;-74
2023/10/30 02:46:24;;;;;;;0.30;0.30;;;;;;;;;;4993318;28;20798;-73
2023/10/30 02:48:50;;;;;;;0.30;0.30;;;;;;;;;;4992160;28;20456;-74
2023/10/30 02:51:16;;;;;;;0.50;0.50;;;;;;;;;;4990350;28;20503;-75
2023/10/30 02:53:42;;;;;;;0.40;0.40;;;;;;;;;;4992714;28;20440;-75
2023/10/30 02:56:08;;;;;;;0.40;0.40;;;;;;;;;;4992121;28;20445;-75
2023/10/30 02:58:34;;;;;;;0.70;0.40;;;;;;;;;;4990715;28;20433;-74
2023/10/30 03:01:01;;;;;;;0.30;0.30;;;;;;;;;;4991618;28;20583;-75
2023/10/30 03:03:27;;;;;;;0.40;0.40;;;;;;;;;;4991322;28;20531;-75
2023/10/30 03:05:53;;;;;;;2.87;0.40;;;;;;;;;;4991552;28;20444;-74
2023/10/30 03:08:19;;;;;;;0.57;0.57;;;;;;;;;;4991174;28;20437;-74
2023/10/30 03:10:47;;;;;;;0.30;0.30;;;;;;;;;;4990397;28;20562;-75
2023/10/30 03:13:13;;;;;;;0.80;0.37;;;;;;;;;;4991055;28;21325;-75
2023/10/30 03:15:40;;;;;;;1.70;1.00;;;;;;;;;;4992037;28;20524;-75
2023/10/30 03:18:06;;;;;;;3.33;1.30;;;;;;;;;;4992440;28;20433;-75
2023/10/30 03:20:32;;;;;;;1.27;1.27;;;;;;;;;;4991923;28;20460;-75
2023/10/30 03:22:58;;;;;;;1.47;1.47;;;;;;;;;;4991724;28;20449;-74
2023/10/30 03:25:24;;;;;;;1.90;1.90;;;;;;;;;;4992063;28;20536;-75
2023/10/30 03:27:50;;;;;;;1.80;1.70;;;;;;;;;;4991899;28;20459;-75
2023/10/30 03:30:16;;;;;;;1.13;1.13;;;;;;;;;;4992138;28;20476;-75
2023/10/30 03:32:42;;;;;;;1.47;1.47;;;;;;;;;;4991566;28;20488;-74
2023/10/30 03:35:08;;;;;;;1.70;1.60;;;;;;;;;;4990201;28;20445;-75
2023/10/30 03:37:34;;;;;;;0.73;0.73;;;;;;;;;;4991370;28;20452;-75
2023/10/30 03:40:00;;;;;;;1.13;1.13;;;;;;;;;;4991867;28;20780;-74
2023/10/30 03:42:26;;;;;;;2.63;1.13;;;;;;;;;;4991104;28;20441;-75
2023/10/30 03:44:52;;;;;;;2.63;2.53;;;;;;;;;;4991781;28;20437;-74
2023/10/30 03:47:18;;;;;;;1.90;1.90;;;;;;;;;;4991650;28;20807;-75
2023/10/30 03:49:44;;;;;;;0.87;0.50;;;;;;;;;;4991349;28;20520;-75
2023/10/30 03:52:09;;;;;;;0.40;0.40;;;;;;;;;;4989773;28;20484;-75
2023/10/30 03:54:35;;;;;;;0.57;0.57;;;;;;;;;;4991956;28;20429;-74
2023/10/30 03:57:01;;;;;;;0.40;0.40;;;;;;;;;;4991281;28;20459;-75
2023/10/30 03:59:27;;;;;;;2.77;0.80;;;;;;;;;;4990868;28;20430;-74
2023/10/30 04:01:54;;;;;;;0.80;0.80;;;;;;;;;;4990724;28;20818;-75
2023/10/30 04:04:20;;;;;;;5.57;0.60;;;;;;;;;;4991035;28;20835;-74
2023/10/30 04:06:46;;;;;;;0.50;0.50;;;;;;;;;;4991531;28;20507;-74
2023/10/30 04:09:12;;;;;;;0.50;0.50;;;;;;;;;;4991678;28;20837;-75
2023/10/30 04:11:38;;;;;;;0.50;0.50;;;;;;;;;;4989888;28;20488;-75
2023/10/30 04:14:04;;;;;;;3.03;1.03;;;;;;;;;;4991342;28;20638;-73
2023/10/30 04:16:30;;;;;;;0.60;0.60;;;;;;;;;;4991579;28;20488;-73
2023/10/30 04:18:57;;;;;;;2.60;0.60;;;;;;;;;;4990871;28;20781;-74
2023/10/30 04:21:23;;;;;;;0.47;0.47;;;;;;;;;;4990523;28;20499;-74
2023/10/30 04:23:48;;;;;;;1.60;0.50;;;;;;;;;;4988312;28;20445;-74
2023/10/30 04:26:14;;;;;;;0.30;0.30;;;;;;;;;;4988651;28;20543;-75
2023/10/30 04:28:40;;;;;;;0.40;0.40;;;;;;;;;;4989839;28;21004;-73
2023/10/30 04:31:06;;;;;;;1.23;0.53;;;;;;;;;;4988948;28;20520;-74
2023/10/30 04:33:33;;;;;;;0.47;0.47;;;;;;;;;;4990011;28;20444;-74
2023/10/30 04:36:02;;;;;;;0.57;0.57;;;;;;;;;;4989121;28;20491;-73
2023/10/30 04:38:30;;;;;;;0.33;0.33;;;;;;;;;;4990461;28;20948;-74
2023/10/30 04:40:56;;;;;;;2.03;0.50;;;;;;;;;;4989738;28;20915;-75
2023/10/30 04:43:22;;;;;;;0.80;0.30;;;;;;;;;;4991075;28;20649;-74
2023/10/30 04:45:48;;;;;;;1.20;0.60;;;;;;;;;;4989766;28;20449;-75
2023/10/30 04:48:14;;;;;;;1.13;0.40;;;;;;;;;;4990275;28;20797;-75
2023/10/30 04:50:40;;;;;;;1.90;0.40;;;;;;;;;;4990284;28;20797;-74
2023/10/30 04:53:06;;;;;;;0.40;0.40;;;;;;;;;;4989961;28;20503;-74
2023/10/30 04:55:34;;;;;;;0.43;0.40;;;;;;;;;;4990850;28;20953;-75
2023/10/30 04:58:00;;;;;;;3.47;0.43;;;;;;;;;;4990868;28;20433;-74
2023/10/30 05:00:26;;;;;;;0.40;0.40;;;;;;;;;;4989786;28;20456;-74
2023/10/30 05:02:52;;;;;;;0.50;0.50;;;;;;;;;;4989905;28;20460;-73
2023/10/30 05:05:18;;;;;;;0.43;0.43;;;;;;;;;;4989309;28;20444;-73
2023/10/30 05:07:44;;;;;;;0.50;0.50;;;;;;;;;;4990081;28;20444;-75
2023/10/30 05:10:11;;;;;;;0.57;0.50;;;;;;;;;;4989760;28;20433;-73
2023/10/30 05:12:38;;;;;;;1.33;0.57;;;;;;;;;;4988558;28;20554;-75
2023/10/30 05:15:04;;;;;;;1.40;0.53;;;;;;;;;;4988842;28;20475;-75
2023/10/30 05:17:30;;;;;;;1.63;0.57;;;;;;;;;;4989979;28;20456;-75
2023/10/30 05:19:56;;;;;;;0.40;0.40;;;;;;;;;;4989995;28;20433;-74
2023/10/30 05:22:24;;;;;;;5.67;0.50;;;;;;;;;;4989651;28;20437;-75
2023/10/30 05:24:50;;;;;;;2.53;0.50;;;;;;;;;;4990182;28;20448;-75
2023/10/30 05:27:16;;;;;;;0.40;0.40;;;;;;;;;;5004103;28;20432;-73
2023/10/30 05:29:42;;;;;;;0.97;0.50;;;;;;;;;;4989450;28;20480;-75
2023/10/30 05:32:08;;;;;;;0.77;0.77;;;;;;;;;;4989620;28;20481;-75
2023/10/30 05:34:34;;;;;;;0.83;0.60;;;;;;;;;;4989719;28;21019;-74
2023/10/30 05:37:01;;;;;;;0.70;0.70;;;;;;;;;;4989029;28;20448;-74
2023/10/30 05:39:27;;;;;;;0.30;0.30;;;;;;;;;;4988982;28;20424;-75
2023/10/30 05:41:53;;;;;;;0.50;0.50;;;;;;;;;;4989181;28;20437;-75
2023/10/30 05:44:19;;;;;;;3.50;2.93;;;;;;;;;;4987721;28;20433;-74
2023/10/30 05:46:45;;;;;;;0.80;0.80;;;;;;;;;;4990059;28;20436;-74
2023/10/30 05:49:11;;;;;;;0.97;0.60;;;;;;;;;;4988638;28;20444;-74
2023/10/30 05:51:37;;;;;;;0.60;0.60;;;;;;;;;;4988074;28;20493;-74
2023/10/30 05:54:03;;;;;;;0.50;0.50;;;;;;;;;;4988937;28;20559;-75
2023/10/30 05:56:29;;;;;;;0.73;0.73;;;;;;;;;;4988999;28;20448;-75
2023/10/30 05:58:57;;;;;;;0.40;0.40;;;;;;;;;;4987588;28;20455;-74
2023/10/30 06:01:23;;;;;;;0.80;0.80;;;;;;;;;;4991292;28;20956;-75
2023/10/30 06:03:49;;;;;;;0.80;0.80;;;;;;;;;;4993189;28;20445;-75
2023/10/30 06:06:15;;;;;;;1.70;1.00;;;;;;;;;;4992341;28;20941;-75
2023/10/30 06:08:41;;;;;;;2.67;1.03;;;;;;;;;;4993614;28;20435;-74
2023/10/30 06:11:07;;;;;;;0.93;0.70;;;;;;;;;;4993208;28;20964;-75
2023/10/30 06:13:33;;;;;;;1.03;1.03;;;;;;;;;;4991283;28;20447;-75
2023/10/30 06:15:59;;;;;;;0.90;0.90;;;;;;;;;;4994044;28;20783;-74
2023/10/30 06:18:25;;;;;;;1.40;1.30;;;;;;;;;;4992128;28;20498;-75
2023/10/30 06:20:51;;;;;;;5.47;0.97;;;;;;;;;;4990768;28;20463;-74
2023/10/30 06:23:17;;;;;;;0.93;0.93;;;;;;;;;;4987221;28;20472;-74
2023/10/30 06:25:44;;;;;;;2.20;0.90;;;;;;;;;;4993106;28;20921;-74
2023/10/30 06:28:12;;;;;;;0.97;0.97;;;;;;;;;;4992631;28;20448;-73
2023/10/30 06:30:38;;;;;;;1.93;1.10;;;;;;;;;;5000931;28;20496;-74
2023/10/30 06:33:05;;;;;;;1.27;0.90;;;;;;;;;;4992973;28;20457;-75
2023/10/30 06:35:31;;;;;;;1.37;1.27;;;;;;;;;;4992854;28;20464;-75
2023/10/30 06:37:57;;;;;;;0.80;0.77;;;;;;;;;;4988919;28;20507;-73
2023/10/30 06:40:23;;;;;;;1.07;1.07;;;;;;;;;;4989321;28;20441;-73
2023/10/30 06:42:49;;;;;;;2.93;0.83;;;;;;;;;;4991577;28;20804;-74
2023/10/30 06:45:15;;;;;;;7.53;0.80;;;;;;;;;;4992767;28;20445;-75
2023/10/30 06:47:41;;;;;;;0.60;0.60;;;;;;;;;;4993120;28;20435;-74
2023/10/30 06:50:07;;;;;;;4.37;0.90;;;;;;;;;;4992620;28;20955;-74
2023/10/30 06:52:33;;;;;;;0.53;0.53;;;;;;;;;;4992259;28;20492;-74
2023/10/30 06:55:00;;;;;;;2.73;0.90;;;;;;;;;;4990776;28;20433;-74
2023/10/30 06:57:26;;;;;;;2.60;1.50;;;;;;;;;;4992882;28;20794;-75
2023/10/30 06:59:55;;;;;;;1.50;1.50;;;;;;;;;;4989553;28;20452;-74
2023/10/30 07:02:21;;;;;;;3.37;3.00;;;;;;;;;;4992506;28;20421;-74
2023/10/30 07:04:48;;;;;;;1.53;1.53;;;;;;;;;;4989058;28;20487;-73
2023/10/30 07:07:14;;;;;;;1.67;1.57;;;;;;;;;;4989844;28;20442;-74
2023/10/30 07:09:40;;;;;;;2.07;1.97;;;;;;;;;;4989539;28;20448;-72
2023/10/30 07:12:06;;;;;;;22.30;3.23;;;;;;;;;;4989471;28;20563;-73
2023/10/30 07:14:33;;;;;;;2.00;1.90;;;;;;;;;;4988548;28;20440;-73
2023/10/30 07:16:59;;;;;;;2.43;2.33;;;;;;;;;;4990320;28;20445;-74
2023/10/30 07:19:25;;;;;;;1.80;1.80;;;;;;;;;;4990529;28;20433;-75
2023/10/30 07:21:51;;;;;;;2.67;2.57;;;;;;;;;;4989621;28;20441;-74
2023/10/30 07:24:17;;;;;;;2.27;2.27;;;;;;;;;;4991845;28;20422;-73
2023/10/30 07:26:43;;;;;;;3.10;1.80;;;;;;;;;;4990065;28;20456;-73
2023/10/30 07:29:09;;;;;;;2.40;2.40;;;;;;;;;;4991184;28;20465;-74
2023/10/30 07:31:35;;;;;;;2.50;2.40;;;;;;;;;;4991762;28;20547;-75
2023/10/30 07:34:01;;;;;;;1.70;1.70;;;;;;;;;;4990351;28;21130;-74
2023/10/30 07:36:27;;;;;;;1.80;1.70;;;;;;;;;;4991172;28;20803;-74
2023/10/30 07:38:53;;;;;;;2.43;2.33;;;;;;;;;;4990407;28;20433;-75
2023/10/30 07:41:19;;;;;;;2.40;1.60;;;;;;;;;;4990812;28;20449;-75
2023/10/30 07:43:45;;;;;;;2.50;2.40;;;;;;;;;;4990988;28;20531;-73
2023/10/30 07:46:14;;;;;;;1.63;1.53;;;;;;;;;;4990795;28;20448;-74
2023/10/30 07:48:40;;;;;;;1.60;1.60;;;;;;;;;;4991695;28;20940;-75
2023/10/30 07:51:06;;;;;;;1.40;1.40;;;;;;;;;;4989973;28;20475;-75
2023/10/30 07:53:32;;;;;;;3.07;2.10;;;;;;;;;;4990741;28;20499;-74
2023/10/30 07:55:58;;;;;;;1.43;1.43;;;;;;;;;;4988888;28;20444;-74
2023/10/30 07:58:25;;;;;;;9.17;3.70;;;;;;;;;;4988590;28;20445;-74
2023/10/30 08:00:52;;;;;;;1.30;1.30;;;;;;;;;;4990111;28;20456;-74
2023/10/30 08:03:18;;;;;;;1.27;1.27;;;;;;;;;;4989876;28;20448;-74
2023/10/30 08:05:44;;;;;;;1.93;1.93;;;;;;;;;;4990952;28;20442;-74
2023/10/30 08:08:10;;;;;;;1.70;1.70;;;;;;;;;;4991254;28;20433;-72
2023/10/30 08:10:36;;;;;;;1.70;1.70;;;;;;;;;;4989521;28;20792;-75
2023/10/30 08:13:01;;;;;;;2.20;1.80;;;;;;;;;;4987053;28;20506;-74
2023/10/30 08:15:28;;;;;;;2.97;2.87;;;;;;;;;;4990801;28;20957;-74
2023/10/30 08:17:54;;;;;;;3.25;3.00;;;;;;;;;;4989671;28;20539;-74
2023/10/30 08:20:20;;;;;;;2.30;2.30;;;;;;;;;;4990758;28;20205;-74
2023/10/30 08:22:46;;;;;;;2.60;2.60;;;;;;;;;;4989615;28;20515;-74
2023/10/30 08:25:12;;;;;;;2.57;2.47;;;;;;;;;;4990449;28;20796;-74
2023/10/30 08:27:38;;;;;;;2.43;2.37;;;;;;;;;;4990177;28;20437;-73
2023/10/30 08:30:06;;;;;;;3.30;3.20;;;;;;;;;;4990378;28;21032;-75
2023/10/30 08:32:32;;;;;;;3.07;2.97;;;;;;;;;;4990439;28;20489;-75
2023/10/30 08:35:01;;;;;;;2.93;2.63;;;;;;;;;;4989379;28;20943;-73
2023/10/30 08:37:27;;;;;;;2.97;2.83;;;;;;;;;;4989258;28;20469;-74
2023/10/30 08:39:53;;;;;;;2.90;2.70;;;;;;;;;;4990616;28;20846;-74
2023/10/30 08:42:19;;;;;;;2.93;2.93;;;;;;;;;;4990314;28;20452;-74
2023/10/30 08:44:45;;;;;;;2.80;2.70;;;;;;;;;;4990084;28;20487;-74
2023/10/30 08:47:12;;;;;;;2.63;2.53;;;;;;;;;;4989686;28;20433;-74
2023/10/30 08:49:38;;;;;;;3.07;2.97;;;;;;;;;;4990493;28;20441;-74
2023/10/30 08:52:05;;;;;;;4.70;4.50;;;;;;;;;;4987559;28;21146;-75
2023/10/30 08:54:31;;;;;;;3.90;3.80;;;;;;;;;;4990511;28;20518;-74
2023/10/30 08:56:57;;;;;;;1.23;1.23;;;;;;;;;;4990923;28;20433;-74
2023/10/30 08:59:24;;;;;;;3.13;3.03;;;;;;;;;;4989822;28;20437;-74
2023/10/30 09:01:50;;;;;;;2.53;2.53;;;;;;;;;;4987155;28;20821;-74
2023/10/30 09:04:16;;;;;;;2.50;2.50;;;;;;;;;;4990528;28;20484;-75
2023/10/30 09:06:42;;;;;;;2.67;2.03;;;;;;;;;;4989989;28;21185;-75
2023/10/30 09:09:10;;;;;;;1.60;1.60;;;;;;;;;;4989268;28;20482;-74
2023/10/30 09:11:35;;;;;;;2.30;2.20;;;;;;;;;;4989455;28;20605;-74
2023/10/30 09:14:02;;;;;;;2.50;2.50;;;;;;;;;;4989340;28;21286;-74
2023/10/30 09:16:28;;;;;;;2.40;2.30;;;;;;;;;;4990451;28;20528;-74
2023/10/30 09:18:54;;;;;;;2.30;2.20;;;;;;;;;;4989050;28;20537;-74
2023/10/30 09:21:20;;;;;;;1.93;1.93;;;;;;;;;;4988349;28;21130;-74
2023/10/30 09:23:47;;;;;;;4.90;4.70;;;;;;;;;;4990246;28;20437;-74
2023/10/30 09:26:14;;;;;;;5.10;4.53;;;;;;;;;;4990451;28;20441;-74
2023/10/30 09:28:40;;;;;;;3.30;3.20;;;;;;;;;;4990387;28;20464;-74
2023/10/30 09:31:06;;;;;;;3.00;2.90;;;;;;;;;;4989445;28;20476;-74
2023/10/30 09:33:32;;;;;;;3.67;3.57;;;;;;;;;;4987517;28;20473;-74
2023/10/30 09:35:58;;;;;;;4.03;3.90;;;;;;;;;;4989856;28;20504;-74
2023/10/30 09:38:25;;;;;;;4.57;3.80;;;;;;;;;;4990443;28;20437;-74
2023/10/30 09:40:56;;;;;;;3.37;3.27;;;;;;;;;;4988212;28;20433;-74
2023/10/30 09:43:25;;;;;;;4.00;3.70;;;;;;;;;;4990162;28;20468;-74
2023/10/30 09:45:51;;;;;;;3.70;3.60;;;;;;;;;;4988629;28;20465;-74
2023/10/30 09:48:17;;;;;;;3.23;3.17;;;;;;;;;;4987540;28;20465;-74
2023/10/30 09:50:43;;;;;;;2.53;2.53;;;;;;;;;;4988020;28;20443;-73
2023/10/30 09:53:10;;;;;;;2.70;2.60;;;;;;;;;;4989574;28;20472;-75
2023/10/30 09:55:36;;;;;;;4.23;3.90;;;;;;;;;;4989271;28;20929;-73
2023/10/30 09:58:03;;;;;;;3.10;3.00;;;;;;;;;;4988313;28;20461;-75
2023/10/30 10:00:29;;;;;;;2.93;2.93;;;;;;;;;;4988118;28;20429;-73
2023/10/30 10:02:55;;;;;;;3.13;3.13;;;;;;;;;;4988810;28;20810;-74
2023/10/30 10:05:21;;;;;;;5.10;4.57;;;;;;;;;;4990090;28;20437;-74
2023/10/30 10:07:47;;;;;;;4.00;3.73;;;;;;;;;;4989964;28;20471;-74
2023/10/30 10:10:18;;;;;;;4.17;3.93;;;;;;;;;;4988989;28;20437;-74
2023/10/30 10:12:43;;;;;;;3.60;3.50;;;;;;;;;;4985815;28;20480;-74
2023/10/30 10:15:09;;;;;;;4.50;4.30;;;;;;;;;;4989975;28;20929;-74
2023/10/30 10:17:42;;;;;;;4.10;3.60;;;;;;;;;;4988428;28;20936;-74
2023/10/30 10:20:10;;;;;;;11.20;5.30;;;;;;;;;;4989480;28;20807;-74
2023/10/30 10:22:36;;;;;;;5.80;3.73;;;;;;;;;;4989103;28;20461;-74
2023/10/30 10:25:02;;;;;;;3.93;3.73;;;;;;;;;;4989074;28;20502;-74
2023/10/30 10:27:28;;;;;;;4.00;3.77;;;;;;;;;;4990213;28;20425;-74
2023/10/30 10:29:55;;;;;;;4.43;4.07;;;;;;;;;;4989160;28;20487;-74
2023/10/30 10:32:25;;;;;;;4.40;4.00;;;;;;;;;;4987699;28;20492;-75
2023/10/30 10:34:52;;;;;;;2.60;2.60;;;;;;;;;;4989153;28;20429;-74
2023/10/30 10:37:18;;;;;;;4.23;3.47;;;;;;;;;;4989202;28;20449;-74
2023/10/30 10:39:47;;;;;;;3.60;3.50;;;;;;;;;;4987722;28;20520;-75
2023/10/30 10:42:14;;;;;;;4.00;3.90;;;;;;;;;;4989339;28;20468;-74
2023/10/30 10:44:40;;;;;;;4.93;4.73;;;;;;;;;;4990091;28;20425;-74
2023/10/30 10:47:06;;;;;;;4.07;3.77;;;;;;;;;;4991271;28;20971;-74
2023/10/30 10:49:32;;;;;;;4.27;4.00;;;;;;;;;;4991712;28;20507;-74
2023/10/30 10:51:59;;;;;;;4.10;3.90;;;;;;;;;;4992380;28;20996;-74
2023/10/30 10:54:27;;;;;;;4.03;3.83;;;;;;;;;;4992772;28;20483;-74
2023/10/30 10:56:54;;;;;;;3.77;3.47;;;;;;;;;;4992026;28;21154;-75
2023/10/30 10:59:21;;;;;;;3.80;3.60;;;;;;;;;;4991183;28;20954;-74
2023/10/30 11:01:49;;;;;;;3.57;3.37;;;;;;;;;;4990985;28;20468;-74
2023/10/30 11:04:17;;;;;;;3.73;3.57;;;;;;;;;;4991848;28;20500;-74
2023/10/30 11:06:45;;;;;;;4.23;3.90;;;;;;;;;;4992785;28;20518;-74
2023/10/30 11:09:19;;;;;;;4.10;3.83;;;;;;;;;;4991370;28;20433;-74
2023/10/30 11:11:52;;;;;;;3.97;3.80;;;;;;;;;;4988585;28;21012;-73
2023/10/30 11:14:33;;;;;;;3.60;3.50;;;;;;;;;;4992437;28;21048;-74
2023/10/30 11:17:03;;;;;;;3.87;3.67;;;;;;;;;;4992336;28;20458;-74
2023/10/30 11:19:29;;;;;;;3.30;3.20;;;;;;;;;;4990475;28;20472;-74
2023/10/30 11:21:56;;;;;;;4.10;2.97;;;;;;;;;;4989755;28;20456;-73
2023/10/30 11:24:36;;;;;;;3.80;3.43;;;;;;;;;;4991979;28;20425;-73
2023/10/30 11:27:22;;;;;;;3.57;3.27;;;;;;;;;;4991290;28;20443;-75
2023/10/30 11:29:54;;;;;;;3.23;3.13;;;;;;;;;;4991697;28;20473;-73
2023/10/30 11:32:22;;;;;;;5.33;3.27;;;;;;;;;;4991279;28;20550;-74
2023/10/30 11:34:48;;;;;;;3.13;3.03;;;;;;;;;;4991891;28;20448;-74
2023/10/30 11:37:19;;;;;;;3.07;2.67;;;;;;;;;;4991741;28;20448;-74
2023/10/30 11:39:48;;;;;;;2.97;2.77;;;;;;;;;;4991727;28;20491;-74
2023/10/30 11:42:39;;;;;;;16.87;5.13;;;;;;;;;;4991485;28;20793;-74
2023/10/30 11:45:19;;;;;;;2.90;2.90;;;;;;;;;;4992067;28;20897;-74
2023/10/30 11:47:49;;;;;;;2.70;2.60;;;;;;;;;;4991588;28;20441;-73
2023/10/30 11:50:18;;;;;;;3.00;3.00;;;;;;;;;;4990850;28;20448;-73
2023/10/30 11:52:45;;;;;;;4.50;2.70;;;;;;;;;;4990954;28;20566;-75
2023/10/30 11:55:11;;;;;;;2.60;2.50;;;;;;;;;;4991849;28;20461;-75
2023/10/30 11:57:38;;;;;;;3.20;3.10;;;;;;;;;;4990870;28;20507;-74
2023/10/30 12:00:04;;;;;;;3.23;3.13;;;;;;;;;;4990329;28;20437;-74
2023/10/30 12:02:30;;;;;;;2.57;2.57;;;;;;;;;;4990166;28;20429;-74
2023/10/30 12:05:06;;;;;;;2.70;2.60;;;;;;;;;;4991959;28;20429;-74
2023/10/30 12:07:32;;;;;;;2.40;2.40;;;;;;;;;;4991811;28;20445;-73
2023/10/30 12:10:01;;;;;;;3.37;3.20;;;;;;;;;;4991385;28;20433;-74
2023/10/30 12:12:27;;;;;;;2.43;2.33;;;;;;;;;;4989197;28;20564;-74
2023/10/30 12:14:56;;;;;;;2.83;2.73;;;;;;;;;;4991558;28;20445;-74
2023/10/30 12:17:22;;;;;;;3.70;2.90;;;;;;;;;;4991260;28;20484;-74
2023/10/30 12:19:48;;;;;;;4.30;4.00;;;;;;;;;;4989898;28;20433;-78
2023/10/30 12:22:14;;;;;;;5.25;3.47;;;;;;;;;;4989347;28;20424;-76
2023/10/30 12:24:40;;;;;;;5.03;3.70;;;;;;;;;;4989762;28;20190;-75
2023/10/30 12:27:06;;;;;;;5.27;2.57;;;;;;;;;;4985554;28;20437;-74
2023/10/30 12:29:34;;;;;;;3.10;2.50;;;;;;;;;;4987320;28;20525;-74
2023/10/30 12:32:00;;;;;;;3.87;2.83;;;;;;;;;;4989940;28;20980;-74
2023/10/30 12:34:26;;;;;;;2.17;2.00;;;;;;;;;;4991081;28;20437;-74
2023/10/30 12:36:52;;;;;;;2.00;1.90;;;;;;;;;;4990259;28;21055;-74
2023/10/30 12:39:21;;;;;;;2.43;2.30;;;;;;;;;;4989225;28;20476;-74
2023/10/30 12:41:53;;;;;;;1.70;1.70;;;;;;;;;;4995094;28;22116;-75
2023/10/30 12:44:19;;;;;;;7.10;2.47;;;;;;;;;;4990014;28;20587;-75
2023/10/30 12:46:46;;;;;;;2.00;2.00;;;;;;;;;;4990745;28;20531;-75
2023/10/30 12:49:12;;;;;;;1.57;1.57;;;;;;;;;;4990228;28;20779;-75
2023/10/30 12:51:38;;;;;;;2.03;1.50;;;;;;;;;;4989548;28;20491;-74
2023/10/30 12:54:04;;;;;;;1.37;1.37;;;;;;;;;;4990358;28;20927;-74
2023/10/30 12:56:30;;;;;;;2.00;1.90;;;;;;;;;;4991089;28;20421;-74
2023/10/30 12:58:56;;;;;;;1.90;1.80;;;;;;;;;;4990703;28;20512;-75
2023/10/30 13:01:22;;;;;;;2.17;2.07;;;;;;;;;;4989056;28;20428;-74
2023/10/30 13:03:48;;;;;;;2.00;1.90;;;;;;;;;;4988782;28;20433;-75
2023/10/30 13:06:14;;;;;;;1.70;1.70;;;;;;;;;;4989093;28;20528;-74
2023/10/30 13:08:40;;;;;;;4.80;2.10;;;;;;;;;;4987894;28;20535;-74
2023/10/30 13:11:08;;;;;;;1.60;1.50;;;;;;;;;;4988866;28;20814;-73
2023/10/30 13:13:34;;;;;;;1.80;1.80;;;;;;;;;;4989257;28;20856;-74
2023/10/30 13:16:00;;;;;;;3.50;1.80;;;;;;;;;;4987449;28;20548;-74
2023/10/30 13:18:27;;;;;;;6.03;2.93;;;;;;;;;;4989250;28;20522;-73
2023/10/30 13:20:53;;;;;;;1.20;1.10;;;;;;;;;;4989841;28;20480;-73
2023/10/30 13:23:21;;;;;;;5.60;1.90;;;;;;;;;;4990645;28;20625;-73
2023/10/30 13:25:49;;;;;;;1.70;1.60;;;;;;;;;;4990210;28;20432;-74
2023/10/30 13:28:17;;;;;;;2.80;2.13;;;;;;;;;;4990500;28;20988;-74
2023/10/30 13:30:43;;;;;;;2.10;2.03;;;;;;;;;;4989895;28;20503;-73
2023/10/30 13:33:09;;;;;;;2.37;2.17;;;;;;;;;;4987870;28;20998;-74
2023/10/30 13:35:35;;;;;;;3.07;2.20;;;;;;;;;;4987290;28;20539;-74
2023/10/30 13:38:00;;;;;;;1.67;1.67;;;;;;;;;;4985686;28;20433;-74
2023/10/30 13:40:26;;;;;;;2.70;1.93;;;;;;;;;;4989317;28;21024;-73
2023/10/30 13:42:54;;;;;;;4.53;2.67;;;;;;;;;;4988842;28;20857;-73
2023/10/30 13:45:21;;;;;;;8.00;2.30;;;;;;;;;;4987773;28;20543;-74
2023/10/30 13:47:47;;;;;;;7.70;1.93;;;;;;;;;;4989430;28;20492;-73
2023/10/30 13:50:13;;;;;;;2.73;1.50;;;;;;;;;;4989129;28;20510;-74
2023/10/30 13:52:39;;;;;;;3.63;3.10;;;;;;;;;;4989888;28;20968;-74
2023/10/30 13:55:05;;;;;;;2.63;2.43;;;;;;;;;;4986289;28;20433;-74
2023/10/30 13:57:31;;;;;;;6.70;3.80;;;;;;;;;;4990179;28;20452;-74
2023/10/30 13:59:57;;;;;;;3.13;1.80;;;;;;;;;;4988516;28;20909;-75
2023/10/30 14:02:23;;;;;;;8.50;3.57;;;;;;;;;;4988714;28;20436;-74
2023/10/30 14:04:49;;;;;;;3.30;2.83;;;;;;;;;;4988610;28;20464;-74
2023/10/30 14:07:15;;;;;;;3.30;1.50;;;;;;;;;;4989252;28;20437;-75
2023/10/30 14:09:41;;;;;;;6.60;2.67;;;;;;;;;;4988712;28;20436;-74
2023/10/30 14:12:07;;;;;;;7.93;2.67;;;;;;;;;;4988365;28;20488;-74
2023/10/30 14:14:33;;;;;;;2.83;2.07;;;;;;;;;;4987418;28;20445;-74
2023/10/30 14:16:59;;;;;;;6.13;3.20;;;;;;;;;;4988865;28;20763;-74
2023/10/30 14:19:24;;;;;;;2.30;1.90;;;;;;;;;;4988182;28;20837;-75
2023/10/30 14:21:50;;;;;;;3.97;2.20;;;;;;;;;;4992780;28;20940;-75
2023/10/30 14:24:16;;;;;;;4.07;2.77;;;;;;;;;;4993553;28;20921;-74
2023/10/30 14:26:42;;;;;;;10.07;4.50;;;;;;;;;;4993189;28;20921;-73
2023/10/30 14:29:08;;;;;;;3.07;2.90;;;;;;;;;;4992558;28;20484;-73
2023/10/30 14:31:34;;;;;;;8.13;5.30;;;;;;;;;;4992421;28;20481;-75
2023/10/30 14:34:00;;;;;;;2.47;2.27;;;;;;;;;;4991466;28;20428;-77
2023/10/30 14:36:26;;;;;;;6.10;3.37;;;;;;;;;;4993010;28;20768;-73
2023/10/30 14:38:53;;;;;;;4.23;3.10;;;;;;;;;;4992834;28;20897;-74